Lycoming, Pennsylvania
Current Conditions -  °F | °C
As of 1:54 PM on Monday 22 Dec 2014 (Local Time) from KIPT Reporting Station
Overcast Overcast  
Wind Chill: 35°   Ceiling: 4100
Heat Index: 35°   Visibility: 10mi
Dew Point: 25°   Wind: 0mph
Humidity: 67%   Direction: NA
Pressure: 30.19"   Gusts: NA
Location:  41.3181°N, 77.075°W
Report Text: KIPT 221854Z 00000KT 10SM SCT020 OVC041 02/M04 A3019 RMK AO2 SLP232 T00171039
Loading
Personal Weather Stations






























Interactive Weather Map New forecast layout! Learn more

10-Day Weather Forecast

Advertisements
Track Severe Weather on mobile